Merrifield, Virginia
Current Conditions -  °F | °C
As of 10:52 AM on Saturday 20 Dec 2014 (Local Time) from KDCA Reporting Station
Broken Clouds Broken Clouds  
Wind Chill: 33°   Ceiling: 15000
Heat Index: 37°   Visibility: 10mi
Dew Point: 20°   Wind: 5mph
Humidity: 50%   Direction: 40°NE
Pressure: 30.34"   Gusts: NA
Location:  38.87°N, 77.23°W
Report Text: KDCA 201552Z 04004KT 10SM BKN150 03/M07 A3034 RMK AO2 SLP273 T00281067
Loading
Personal Weather Stations






























Interactive Weather Map New forecast layout! Learn more

10-Day Weather Forecast

Advertisements
Track Severe Weather on mobile